Pagrindinis puslapis
METAR-TAF:

METAR-TAF

Oro uostai :

Erebru, Švedija

platuma: 59-14N, ilguma: 015-03E, Aukštis: 57 m

Dabartinis oras

Ataskaita buvo paskelbta 31 minutes, ne 06:50 UTC
Vėjas 2 kt iš Pietų/Pietvakarių
Temperatūra -7°C
Drėgmė 86%
Slėgis 1002 hPa
Matomumas 10 km arba daugiau
nėra debesų žemiau 1500 m ir nėra kamuolinių lietaus debesų

METAR: ESOE 280650Z 20002KT CAVOK M07/M09 Q1002

Laikas: 08:21 (07:21 UTC)

Prognozė

Ataskaita buvo paskelbta 1 valandą ir 51 minutes, ne 05:30 UTC
Prognozė galioja nuo 28 metu 06 UTC su 28 metu 15 UTC
Vėjas 2 kt nuo kintamojo kryptimis
Matomumas 10 km arba daugiau
nėra debesų žemiau 1500 m ir nėra kamuolinių lietaus debesų
Tikimybė 40%
nuo 28 metu 06 UTC su 28 metu 09 UTC
Matomumas: 0800 m
Rūkas lopais

TAF: ESOE 280530Z 2806/2815 VRB02KT CAVOK PROB40 2806/2809 0800 BCFG

Orai ataskaitas ir orų prognozės (METAR, TAF).

turimą stotys yra geltonos ir raudonos taškus žemėlapyje.

Perkelti pele per norėdami pamatyti stoties vardą.

Tada spustelėkite, norėdami matyti oro stebėjimo ir prognozės.

Norėdami pakeisti žemėlapį: spustelėkite ant žalios mygtukų su juodo kryžiaus žemyn,; žalią mygtuką su brūkšneliu, jei norite nutolinti; arba žalių rodyklių gretimoms žemėlapius.


METAR-TAF: